sensor_id;sensor_type;location;lat;lon;timestamp;pressure;altitude;pressure_sealevel;temperature;humidity
39177;BME280;24904;52.208;21.192;2023-04-29T00:03:13;100566.88;;;6.64;53.78
39177;BME280;24904;52.208;21.192;2023-04-29T00:08:17;100564.05;;;6.58;54.00
39177;BME280;24904;52.208;21.192;2023-04-29T00:13:19;100560.58;;;6.53;54.38
39177;BME280;24904;52.208;21.192;2023-04-29T00:18:23;100560.73;;;6.53;54.38
39177;BME280;24904;52.208;21.192;2023-04-29T00:23:26;100557.20;;;6.49;54.56
39177;BME280;24904;52.208;21.192;2023-04-29T00:28:29;100556.11;;;6.50;54.70
39177;BME280;24904;52.208;21.192;2023-04-29T00:33:32;100555.49;;;6.50;54.60
39177;BME280;24904;52.208;21.192;2023-04-29T00:38:35;100552.75;;;6.47;54.91
39177;BME280;24904;52.208;21.192;2023-04-29T00:43:38;100549.45;;;6.41;54.57
39177;BME280;24904;52.208;21.192;2023-04-29T00:48:41;100542.86;;;6.40;55.00
39177;BME280;24904;52.208;21.192;2023-04-29T00:53:45;100542.16;;;6.42;55.28
39177;BME280;24904;52.208;21.192;2023-04-29T00:58:49;100534.20;;;6.42;55.25
39177;BME280;24904;52.208;21.192;2023-04-29T01:03:54;100527.70;;;6.38;55.47
39177;BME280;24904;52.208;21.192;2023-04-29T01:09:08;100524.98;;;6.33;55.37
39177;BME280;24904;52.208;21.192;2023-04-29T01:14:17;100527.95;;;6.36;55.55
39177;BME280;24904;52.208;21.192;2023-04-29T01:19:27;100529.76;;;6.36;55.49
39177;BME280;24904;52.208;21.192;2023-04-29T01:24:36;100531.52;;;6.37;55.69
39177;BME280;24904;52.208;21.192;2023-04-29T01:29:44;100532.67;;;6.40;55.70
39177;BME280;24904;52.208;21.192;2023-04-29T01:34:57;100536.96;;;6.43;55.63
39177;BME280;24904;52.208;21.192;2023-04-29T01:40:04;100538.85;;;6.43;55.80
39177;BME280;24904;52.208;21.192;2023-04-29T01:45:18;100532.90;;;6.45;55.84
39177;BME280;24904;52.208;21.192;2023-04-29T01:50:23;100528.97;;;6.47;55.87
39177;BME280;24904;52.208;21.192;2023-04-29T01:55:26;100525.92;;;6.47;55.96
39177;BME280;24904;52.208;21.192;2023-04-29T02:00:48;100522.98;;;6.49;56.10
39177;BME280;24904;52.208;21.192;2023-04-29T02:05:54;100520.17;;;6.52;55.95
39177;BME280;24904;52.208;21.192;2023-04-29T02:10:58;100518.58;;;6.54;55.90
39177;BME280;24904;52.208;21.192;2023-04-29T02:16:14;100519.45;;;6.57;55.99
39177;BME280;24904;52.208;21.192;2023-04-29T02:21:27;100518.65;;;6.59;56.02
39177;BME280;24904;52.208;21.192;2023-04-29T02:27:07;100514.61;;;6.63;55.94
39177;BME280;24904;52.208;21.192;2023-04-29T02:32:11;100518.68;;;6.62;55.84
39177;BME280;24904;52.208;21.192;2023-04-29T02:37:16;100512.58;;;6.64;56.04
39177;BME280;24904;52.208;21.192;2023-04-29T02:42:19;100511.39;;;6.66;56.17
39177;BME280;24904;52.208;21.192;2023-04-29T02:47:22;100506.09;;;6.66;56.12
39177;BME280;24904;52.208;21.192;2023-04-29T02:52:25;100505.22;;;6.68;56.27
39177;BME280;24904;52.208;21.192;2023-04-29T02:57:28;100503.84;;;6.70;56.07
39177;BME280;24904;52.208;21.192;2023-04-29T03:02:33;100506.63;;;6.69;56.18
39177;BME280;24904;52.208;21.192;2023-04-29T03:07:36;100499.35;;;6.65;56.32
39177;BME280;24904;52.208;21.192;2023-04-29T03:12:40;100498.91;;;6.66;56.26
39177;BME280;24904;52.208;21.192;2023-04-29T03:17:43;100498.98;;;6.66;56.32
39177;BME280;24904;52.208;21.192;2023-04-29T03:22:48;100495.88;;;6.66;56.38
39177;BME280;24904;52.208;21.192;2023-04-29T03:27:51;100498.77;;;6.66;56.42
39177;BME280;24904;52.208;21.192;2023-04-29T03:32:55;100496.46;;;6.68;56.64
39177;BME280;24904;52.208;21.192;2023-04-29T03:37:58;100495.67;;;6.71;56.50
39177;BME280;24904;52.208;21.192;2023-04-29T03:43:05;100494.41;;;6.70;56.59
39177;BME280;24904;52.208;21.192;2023-04-29T03:48:10;100495.08;;;6.72;56.69
39177;BME280;24904;52.208;21.192;2023-04-29T03:53:15;100499.01;;;6.73;56.90
39177;BME280;24904;52.208;21.192;2023-04-29T03:58:20;100493.52;;;6.74;56.79
39177;BME280;24904;52.208;21.192;2023-04-29T04:03:25;100495.94;;;6.76;56.79
39177;BME280;24904;52.208;21.192;2023-04-29T04:08:30;100493.14;;;6.80;57.02
39177;BME280;24904;52.208;21.192;2023-04-29T04:13:42;100489.95;;;6.83;57.00
39177;BME280;24904;52.208;21.192;2023-04-29T04:18:45;100485.20;;;6.89;57.00
39177;BME280;24904;52.208;21.192;2023-04-29T04:23:50;100483.27;;;6.98;56.91
39177;BME280;24904;52.208;21.192;2023-04-29T04:28:56;100489.61;;;7.04;56.97
39177;BME280;24904;52.208;21.192;2023-04-29T04:34:14;100481.81;;;7.10;56.90
39177;BME280;24904;52.208;21.192;2023-04-29T04:39:22;100478.63;;;7.16;56.84
39177;BME280;24904;52.208;21.192;2023-04-29T04:44:26;100477.95;;;7.24;57.08
39177;BME280;24904;52.208;21.192;2023-04-29T04:49:42;100479.55;;;7.34;56.99
39177;BME280;24904;52.208;21.192;2023-04-29T04:54:45;100473.59;;;7.46;56.85
39177;BME280;24904;52.208;21.192;2023-04-29T04:59:53;100469.57;;;7.57;56.48
39177;BME280;24904;52.208;21.192;2023-04-29T05:04:56;100468.60;;;7.68;56.69
39177;BME280;24904;52.208;21.192;2023-04-29T05:10:01;100463.98;;;7.83;56.42
39177;BME280;24904;52.208;21.192;2023-04-29T05:15:08;100462.73;;;8.00;56.42
39177;BME280;24904;52.208;21.192;2023-04-29T05:20:12;100456.52;;;8.20;55.99
39177;BME280;24904;52.208;21.192;2023-04-29T05:25:15;100454.88;;;8.44;55.86
39177;BME280;24904;52.208;21.192;2023-04-29T05:30:19;100456.70;;;8.68;55.37
39177;BME280;24904;52.208;21.192;2023-04-29T05:35:22;100459.78;;;8.90;55.14
39177;BME280;24904;52.208;21.192;2023-04-29T05:40:26;100456.02;;;9.14;54.82
39177;BME280;24904;52.208;21.192;2023-04-29T05:45:42;100456.13;;;9.38;54.27
39177;BME280;24904;52.208;21.192;2023-04-29T05:50:48;100455.52;;;9.59;53.72
39177;BME280;24904;52.208;21.192;2023-04-29T05:55:51;100457.20;;;9.75;53.22
39177;BME280;24904;52.208;21.192;2023-04-29T06:00:56;100453.80;;;9.93;52.91
39177;BME280;24904;52.208;21.192;2023-04-29T06:06:00;100453.15;;;10.13;52.23
39177;BME280;24904;52.208;21.192;2023-04-29T06:11:29;100451.46;;;10.36;51.89
39177;BME280;24904;52.208;21.192;2023-04-29T06:16:33;100452.44;;;10.58;51.47
39177;BME280;24904;52.208;21.192;2023-04-29T06:21:36;100457.01;;;10.78;50.68
39177;BME280;24904;52.208;21.192;2023-04-29T06:26:39;100459.59;;;11.01;50.54
39177;BME280;24904;52.208;21.192;2023-04-29T06:31:42;100456.77;;;11.22;49.93
39177;BME280;24904;52.208;21.192;2023-04-29T06:36:46;100453.02;;;11.43;49.80
39177;BME280;24904;52.208;21.192;2023-04-29T06:42:07;100451.34;;;11.67;49.27
39177;BME280;24904;52.208;21.192;2023-04-29T06:47:34;100452.17;;;11.90;48.83
39177;BME280;24904;52.208;21.192;2023-04-29T06:52:47;100438.54;;;12.10;48.30
39177;BME280;24904;52.208;21.192;2023-04-29T06:57:50;100441.93;;;12.27;47.89
39177;BME280;24904;52.208;21.192;2023-04-29T07:02:53;100446.05;;;12.47;47.95
39177;BME280;24904;52.208;21.192;2023-04-29T07:07:57;100445.67;;;12.71;47.46
39177;BME280;24904;52.208;21.192;2023-04-29T07:13:00;100435.90;;;12.95;47.25
39177;BME280;24904;52.208;21.192;2023-04-29T07:18:04;100429.98;;;13.21;47.17
39177;BME280;24904;52.208;21.192;2023-04-29T07:23:07;100430.26;;;13.42;46.03
39177;BME280;24904;52.208;21.192;2023-04-29T07:28:11;100431.36;;;13.52;45.58
39177;BME280;24904;52.208;21.192;2023-04-29T07:33:14;100430.88;;;13.64;45.39
39177;BME280;24904;52.208;21.192;2023-04-29T07:38:17;100430.86;;;13.81;45.22
39177;BME280;24904;52.208;21.192;2023-04-29T07:43:20;100429.58;;;14.01;44.76
39177;BME280;24904;52.208;21.192;2023-04-29T07:48:23;100427.55;;;14.22;44.48
39177;BME280;24904;52.208;21.192;2023-04-29T07:53:26;100420.08;;;14.38;44.02
39177;BME280;24904;52.208;21.192;2023-04-29T07:58:29;100422.20;;;14.51;44.07
39177;BME280;24904;52.208;21.192;2023-04-29T08:03:35;100426.16;;;14.66;43.98
39177;BME280;24904;52.208;21.192;2023-04-29T08:08:39;100425.61;;;14.79;43.59
39177;BME280;24904;52.208;21.192;2023-04-29T08:13:42;100431.84;;;14.95;42.81
39177;BME280;24904;52.208;21.192;2023-04-29T08:18:45;100429.30;;;15.12;42.81
39177;BME280;24904;52.208;21.192;2023-04-29T08:23:48;100427.48;;;15.33;42.24
39177;BME280;24904;52.208;21.192;2023-04-29T08:28:51;100426.48;;;15.50;41.73
39177;BME280;24904;52.208;21.192;2023-04-29T08:33:54;100415.41;;;15.62;41.44
39177;BME280;24904;52.208;21.192;2023-04-29T08:38:57;100411.08;;;15.78;40.94
39177;BME280;24904;52.208;21.192;2023-04-29T08:44:00;100408.02;;;15.91;40.49
39177;BME280;24904;52.208;21.192;2023-04-29T08:57:49;100404.93;;;16.28;39.80
39177;BME280;24904;52.208;21.192;2023-04-29T09:02:57;100408.43;;;16.33;39.44
39177;BME280;24904;52.208;21.192;2023-04-29T09:08:00;100407.66;;;16.39;39.66
39177;BME280;24904;52.208;21.192;2023-04-29T09:13:05;100402.88;;;16.54;40.14
39177;BME280;24904;52.208;21.192;2023-04-29T09:18:08;100405.81;;;16.74;39.70
39177;BME280;24904;52.208;21.192;2023-04-29T09:23:11;100400.66;;;16.81;39.37
39177;BME280;24904;52.208;21.192;2023-04-29T09:28:17;100398.35;;;16.93;39.17
39177;BME280;24904;52.208;21.192;2023-04-29T09:33:20;100401.55;;;17.02;39.30
39177;BME280;24904;52.208;21.192;2023-04-29T09:38:23;100399.39;;;17.08;39.42
39177;BME280;24904;52.208;21.192;2023-04-29T09:43:26;100387.94;;;17.10;39.17
39177;BME280;24904;52.208;21.192;2023-04-29T09:48:31;100384.39;;;17.09;39.00
39177;BME280;24904;52.208;21.192;2023-04-29T09:53:35;100378.02;;;17.11;39.11
39177;BME280;24904;52.208;21.192;2023-04-29T09:58:40;100381.92;;;17.20;38.90
39177;BME280;24904;52.208;21.192;2023-04-29T10:03:43;100378.90;;;17.20;38.43
39177;BME280;24904;52.208;21.192;2023-04-29T10:08:47;100375.11;;;17.19;38.24
39177;BME280;24904;52.208;21.192;2023-04-29T10:13:51;100364.05;;;17.22;38.20
39177;BME280;24904;52.208;21.192;2023-04-29T10:18:55;100361.83;;;17.26;37.75
39177;BME280;24904;52.208;21.192;2023-04-29T10:24:02;100360.52;;;17.29;37.73
39177;BME280;24904;52.208;21.192;2023-04-29T10:29:07;100353.77;;;17.35;37.89
39177;BME280;24904;52.208;21.192;2023-04-29T10:34:50;100344.67;;;17.47;37.92
39177;BME280;24904;52.208;21.192;2023-04-29T10:40:04;100340.22;;;17.52;37.63
39177;BME280;24904;52.208;21.192;2023-04-29T10:45:20;100337.85;;;17.56;37.96
39177;BME280;24904;52.208;21.192;2023-04-29T10:50:24;100331.02;;;17.65;37.92
39177;BME280;24904;52.208;21.192;2023-04-29T10:55:30;100331.86;;;17.72;37.90
39177;BME280;24904;52.208;21.192;2023-04-29T11:00:34;100332.27;;;17.77;37.45
39177;BME280;24904;52.208;21.192;2023-04-29T11:05:40;100327.41;;;17.78;37.35
39177;BME280;24904;52.208;21.192;2023-04-29T11:10:43;100332.61;;;17.80;37.44
39177;BME280;24904;52.208;21.192;2023-04-29T11:15:46;100318.52;;;17.85;37.16
39177;BME280;24904;52.208;21.192;2023-04-29T11:21:14;100314.20;;;17.87;37.22
39177;BME280;24904;52.208;21.192;2023-04-29T11:26:19;100304.14;;;17.91;37.18
39177;BME280;24904;52.208;21.192;2023-04-29T11:31:26;100300.66;;;17.90;37.24
39177;BME280;24904;52.208;21.192;2023-04-29T11:36:31;100308.77;;;17.90;37.20
39177;BME280;24904;52.208;21.192;2023-04-29T11:41:35;100302.94;;;17.95;37.34
39177;BME280;24904;52.208;21.192;2023-04-29T11:46:39;100309.61;;;18.07;37.04
39177;BME280;24904;52.208;21.192;2023-04-29T11:51:43;100305.17;;;18.09;36.83
39177;BME280;24904;52.208;21.192;2023-04-29T11:56:46;100290.21;;;18.04;36.62
39177;BME280;24904;52.208;21.192;2023-04-29T12:01:49;100283.52;;;17.90;36.80
39177;BME280;24904;52.208;21.192;2023-04-29T12:06:52;100283.89;;;17.87;37.33
39177;BME280;24904;52.208;21.192;2023-04-29T12:11:55;100285.48;;;17.83;36.90
39177;BME280;24904;52.208;21.192;2023-04-29T12:16:58;100269.20;;;17.83;37.05
39177;BME280;24904;52.208;21.192;2023-04-29T12:22:02;100272.58;;;17.93;37.09
39177;BME280;24904;52.208;21.192;2023-04-29T12:27:09;100273.09;;;17.98;36.85
39177;BME280;24904;52.208;21.192;2023-04-29T12:32:16;100263.59;;;17.97;36.99
39177;BME280;24904;52.208;21.192;2023-04-29T12:37:21;100254.40;;;17.93;37.00
39177;BME280;24904;52.208;21.192;2023-04-29T12:42:31;100254.68;;;17.99;37.29
39177;BME280;24904;52.208;21.192;2023-04-29T12:47:35;100255.31;;;18.03;37.15
39177;BME280;24904;52.208;21.192;2023-04-29T12:52:41;100250.66;;;17.94;37.15
39177;BME280;24904;52.208;21.192;2023-04-29T12:57:44;100251.80;;;17.85;37.28
39177;BME280;24904;52.208;21.192;2023-04-29T13:02:47;100239.07;;;17.82;37.50
39177;BME280;24904;52.208;21.192;2023-04-29T13:07:50;100237.08;;;17.94;37.70
39177;BME280;24904;52.208;21.192;2023-04-29T13:12:53;100236.91;;;17.95;37.39
39177;BME280;24904;52.208;21.192;2023-04-29T13:17:56;100240.63;;;17.83;37.19
39177;BME280;24904;52.208;21.192;2023-04-29T13:22:59;100234.39;;;17.79;37.56
39177;BME280;24904;52.208;21.192;2023-04-29T13:28:03;100224.36;;;17.77;37.61
39177;BME280;24904;52.208;21.192;2023-04-29T13:33:06;100227.54;;;17.76;37.86
39177;BME280;24904;52.208;21.192;2023-04-29T13:38:10;100216.23;;;17.78;37.59
39177;BME280;24904;52.208;21.192;2023-04-29T13:43:13;100219.73;;;17.85;38.03
39177;BME280;24904;52.208;21.192;2023-04-29T13:48:16;100217.95;;;17.91;37.74
39177;BME280;24904;52.208;21.192;2023-04-29T13:53:20;100223.48;;;17.95;37.58
39177;BME280;24904;52.208;21.192;2023-04-29T13:58:23;100219.33;;;17.96;37.63
39177;BME280;24904;52.208;21.192;2023-04-29T14:03:26;100215.36;;;18.00;37.50
39177;BME280;24904;52.208;21.192;2023-04-29T14:08:29;100214.13;;;18.03;37.47
39177;BME280;24904;52.208;21.192;2023-04-29T14:13:32;100215.15;;;17.95;37.60
39177;BME280;24904;52.208;21.192;2023-04-29T14:18:35;100209.19;;;17.85;37.67
39177;BME280;24904;52.208;21.192;2023-04-29T14:23:38;100212.37;;;17.76;37.95
39177;BME280;24904;52.208;21.192;2023-04-29T14:28:42;100210.89;;;17.67;37.93
39177;BME280;24904;52.208;21.192;2023-04-29T14:33:45;100211.52;;;17.59;38.22
39177;BME280;24904;52.208;21.192;2023-04-29T14:38:49;100210.52;;;17.49;38.12
39177;BME280;24904;52.208;21.192;2023-04-29T14:43:53;100204.06;;;17.38;38.10
39177;BME280;24904;52.208;21.192;2023-04-29T14:48:56;100201.77;;;17.30;38.26
39177;BME280;24904;52.208;21.192;2023-04-29T14:53:59;100201.35;;;17.23;38.42
39177;BME280;24904;52.208;21.192;2023-04-29T14:59:02;100201.70;;;17.16;38.89
39177;BME280;24904;52.208;21.192;2023-04-29T15:04:05;100200.02;;;17.09;38.80
39177;BME280;24904;52.208;21.192;2023-04-29T15:09:08;100197.58;;;17.05;39.08
39177;BME280;24904;52.208;21.192;2023-04-29T15:14:11;100204.56;;;17.04;39.19
39177;BME280;24904;52.208;21.192;2023-04-29T15:19:14;100201.98;;;17.01;39.29
39177;BME280;24904;52.208;21.192;2023-04-29T15:24:17;100197.27;;;16.99;39.26
39177;BME280;24904;52.208;21.192;2023-04-29T15:29:20;100203.05;;;16.95;39.17
39177;BME280;24904;52.208;21.192;2023-04-29T15:34:23;100202.39;;;16.92;39.38
39177;BME280;24904;52.208;21.192;2023-04-29T15:39:26;100201.23;;;16.90;39.51
39177;BME280;24904;52.208;21.192;2023-04-29T15:44:29;100200.69;;;16.84;39.66
39177;BME280;24904;52.208;21.192;2023-04-29T15:49:34;100201.04;;;16.79;40.00
39177;BME280;24904;52.208;21.192;2023-04-29T15:54:37;100198.52;;;16.73;40.09
39177;BME280;24904;52.208;21.192;2023-04-29T15:59:40;100192.56;;;16.69;40.44
39177;BME280;24904;52.208;21.192;2023-04-29T16:04:43;100190.84;;;16.67;40.38
39177;BME280;24904;52.208;21.192;2023-04-29T16:09:46;100187.55;;;16.64;40.71
39177;BME280;24904;52.208;21.192;2023-04-29T16:14:49;100184.42;;;16.61;40.86
39177;BME280;24904;52.208;21.192;2023-04-29T16:19:52;100184.75;;;16.61;41.14
39177;BME280;24904;52.208;21.192;2023-04-29T16:24:55;100187.52;;;16.59;41.10
39177;BME280;24904;52.208;21.192;2023-04-29T16:29:58;100186.45;;;16.58;41.25
39177;BME280;24904;52.208;21.192;2023-04-29T16:35:01;100189.08;;;16.57;41.53
39177;BME280;24904;52.208;21.192;2023-04-29T16:40:06;100191.14;;;16.53;41.57
39177;BME280;24904;52.208;21.192;2023-04-29T16:45:11;100193.75;;;16.48;41.56
39177;BME280;24904;52.208;21.192;2023-04-29T16:50:14;100192.65;;;16.42;41.86
39177;BME280;24904;52.208;21.192;2023-04-29T16:55:19;100200.10;;;16.37;41.98
39177;BME280;24904;52.208;21.192;2023-04-29T17:00:22;100204.24;;;16.29;42.19
39177;BME280;24904;52.208;21.192;2023-04-29T17:05:25;100209.99;;;16.20;42.33
39177;BME280;24904;52.208;21.192;2023-04-29T17:10:28;100217.63;;;16.12;42.48
39177;BME280;24904;52.208;21.192;2023-04-29T17:15:31;100213.72;;;16.02;42.72
39177;BME280;24904;52.208;21.192;2023-04-29T17:20:34;100217.92;;;15.96;43.01
39177;BME280;24904;52.208;21.192;2023-04-29T17:25:37;100219.75;;;15.90;43.27
39177;BME280;24904;52.208;21.192;2023-04-29T17:30:40;100219.27;;;15.84;43.50
39177;BME280;24904;52.208;21.192;2023-04-29T17:35:44;100215.48;;;15.79;43.72
39177;BME280;24904;52.208;21.192;2023-04-29T17:40:47;100213.00;;;15.72;44.00
39177;BME280;24904;52.208;21.192;2023-04-29T17:45:50;100215.59;;;15.68;44.23
39177;BME280;24904;52.208;21.192;2023-04-29T17:50:53;100213.52;;;15.64;44.31
39177;BME280;24904;52.208;21.192;2023-04-29T17:55:56;100213.16;;;15.60;44.45
39177;BME280;24904;52.208;21.192;2023-04-29T18:01:03;100216.44;;;15.55;44.75
39177;BME280;24904;52.208;21.192;2023-04-29T18:06:06;100221.02;;;15.49;44.89
39177;BME280;24904;52.208;21.192;2023-04-29T18:11:09;100222.34;;;15.43;45.05
39177;BME280;24904;52.208;21.192;2023-04-29T18:16:13;100227.43;;;15.40;45.14
39177;BME280;24904;52.208;21.192;2023-04-29T18:21:20;100234.02;;;15.38;45.15
39177;BME280;24904;52.208;21.192;2023-04-29T18:26:24;100235.77;;;15.37;45.41
39177;BME280;24904;52.208;21.192;2023-04-29T18:31:27;100245.29;;;15.32;45.54
39177;BME280;24904;52.208;21.192;2023-04-29T18:36:30;100253.19;;;15.26;45.71
39177;BME280;24904;52.208;21.192;2023-04-29T18:41:33;100258.05;;;15.23;46.25
39177;BME280;24904;52.208;21.192;2023-04-29T18:46:36;100269.46;;;15.18;46.25
39177;BME280;24904;52.208;21.192;2023-04-29T18:51:39;100276.26;;;15.17;46.13
39177;BME280;24904;52.208;21.192;2023-04-29T18:56:42;100278.85;;;15.19;46.28
39177;BME280;24904;52.208;21.192;2023-04-29T19:01:46;100283.98;;;15.19;46.41
39177;BME280;24904;52.208;21.192;2023-04-29T19:06:49;100283.50;;;15.19;46.62
39177;BME280;24904;52.208;21.192;2023-04-29T19:11:52;100280.55;;;15.15;46.75
39177;BME280;24904;52.208;21.192;2023-04-29T19:16:55;100273.52;;;15.07;47.10
39177;BME280;24904;52.208;21.192;2023-04-29T19:21:59;100271.45;;;14.99;47.25
39177;BME280;24904;52.208;21.192;2023-04-29T19:27:02;100276.73;;;14.92;47.28
39177;BME280;24904;52.208;21.192;2023-04-29T19:32:05;100277.39;;;14.78;47.61
39177;BME280;24904;52.208;21.192;2023-04-29T19:37:08;100279.84;;;14.66;48.00
39177;BME280;24904;52.208;21.192;2023-04-29T19:42:11;100279.70;;;14.52;48.42
39177;BME280;24904;52.208;21.192;2023-04-29T19:47:14;100280.23;;;14.36;48.82
39177;BME280;24904;52.208;21.192;2023-04-29T19:52:17;100283.01;;;14.20;49.26
39177;BME280;24904;52.208;21.192;2023-04-29T19:57:20;100281.89;;;14.07;49.53
39177;BME280;24904;52.208;21.192;2023-04-29T20:02:23;100280.30;;;13.93;49.78
39177;BME280;24904;52.208;21.192;2023-04-29T20:07:26;100282.23;;;13.83;49.95
39177;BME280;24904;52.208;21.192;2023-04-29T20:12:29;100280.90;;;13.75;50.25
39177;BME280;24904;52.208;21.192;2023-04-29T20:17:33;100278.89;;;13.67;50.45
39177;BME280;24904;52.208;21.192;2023-04-29T20:22:36;100284.96;;;13.63;50.65
39177;BME280;24904;52.208;21.192;2023-04-29T20:27:39;100281.43;;;13.59;50.74
39177;BME280;24904;52.208;21.192;2023-04-29T20:32:42;100279.56;;;13.54;50.96
39177;BME280;24904;52.208;21.192;2023-04-29T20:37:45;100280.59;;;13.50;50.96
39177;BME280;24904;52.208;21.192;2023-04-29T20:42:48;100277.13;;;13.44;51.11
39177;BME280;24904;52.208;21.192;2023-04-29T20:47:52;100273.29;;;13.40;51.39
39177;BME280;24904;52.208;21.192;2023-04-29T20:52:55;100273.45;;;13.37;51.43
39177;BME280;24904;52.208;21.192;2023-04-29T20:57:58;100270.92;;;13.31;51.58
39177;BME280;24904;52.208;21.192;2023-04-29T21:03:01;100270.88;;;13.26;51.83
39177;BME280;24904;52.208;21.192;2023-04-29T21:08:05;100268.27;;;13.23;52.00
39177;BME280;24904;52.208;21.192;2023-04-29T21:13:08;100268.73;;;13.19;52.09
39177;BME280;24904;52.208;21.192;2023-04-29T21:18:11;100269.05;;;13.13;51.99
39177;BME280;24904;52.208;21.192;2023-04-29T21:23:14;100272.59;;;13.07;52.09
39177;BME280;24904;52.208;21.192;2023-04-29T21:28:17;100269.91;;;13.02;52.03
39177;BME280;24904;52.208;21.192;2023-04-29T21:33:20;100270.00;;;12.97;52.25
39177;BME280;24904;52.208;21.192;2023-04-29T21:38:23;100272.43;;;12.93;52.58
39177;BME280;24904;52.208;21.192;2023-04-29T21:43:27;100273.14;;;12.86;52.65
39177;BME280;24904;52.208;21.192;2023-04-29T21:48:30;100272.04;;;12.80;52.72
39177;BME280;24904;52.208;21.192;2023-04-29T21:53:33;100271.88;;;12.73;52.74
39177;BME280;24904;52.208;21.192;2023-04-29T21:58:36;100270.78;;;12.69;52.91
39177;BME280;24904;52.208;21.192;2023-04-29T22:03:40;100269.02;;;12.62;52.96
39177;BME280;24904;52.208;21.192;2023-04-29T22:08:43;100273.59;;;12.54;53.07
39177;BME280;24904;52.208;21.192;2023-04-29T22:13:46;100270.83;;;12.45;53.20
39177;BME280;24904;52.208;21.192;2023-04-29T22:18:49;100275.67;;;12.36;53.60
39177;BME280;24904;52.208;21.192;2023-04-29T22:23:53;100276.59;;;12.21;53.77
39177;BME280;24904;52.208;21.192;2023-04-29T22:28:56;100276.14;;;12.05;54.34
39177;BME280;24904;52.208;21.192;2023-04-29T22:33:59;100275.30;;;11.92;54.49
39177;BME280;24904;52.208;21.192;2023-04-29T22:39:02;100272.91;;;11.83;54.82
39177;BME280;24904;52.208;21.192;2023-04-29T22:44:05;100268.13;;;11.77;55.04
39177;BME280;24904;52.208;21.192;2023-04-29T22:49:08;100262.77;;;11.70;55.59
39177;BME280;24904;52.208;21.192;2023-04-29T22:54:11;100266.64;;;11.62;55.66
39177;BME280;24904;52.208;21.192;2023-04-29T22:59:14;100270.91;;;11.53;56.06
39177;BME280;24904;52.208;21.192;2023-04-29T23:04:17;100273.27;;;11.52;56.43
39177;BME280;24904;52.208;21.192;2023-04-29T23:09:21;100272.13;;;11.55;56.50
39177;BME280;24904;52.208;21.192;2023-04-29T23:14:24;100267.26;;;11.56;56.76
39177;BME280;24904;52.208;21.192;2023-04-29T23:19:27;100266.71;;;11.59;57.01
39177;BME280;24904;52.208;21.192;2023-04-29T23:24:30;100271.66;;;11.60;57.18
39177;BME280;24904;52.208;21.192;2023-04-29T23:29:33;100274.54;;;11.70;57.14
39177;BME280;24904;52.208;21.192;2023-04-29T23:34:36;100273.86;;;11.76;57.19
39177;BME280;24904;52.208;21.192;2023-04-29T23:39:39;100277.00;;;11.76;57.10
39177;BME280;24904;52.208;21.192;2023-04-29T23:44:42;100275.91;;;11.77;57.23
39177;BME280;24904;52.208;21.192;2023-04-29T23:49:45;100271.84;;;11.78;57.21
39177;BME280;24904;52.208;21.192;2023-04-29T23:54:49;100268.80;;;11.80;57.42
39177;BME280;24904;52.208;21.192;2023-04-29T23:59:52;100264.39;;;11.80;57.49
